createdAt,value
2019-04-25T00:01:21.582Z,1.22
2019-04-25T00:03:47.980Z,1.15
2019-04-25T00:06:14.497Z,1.10
2019-04-25T00:08:41.322Z,1.17
2019-04-25T00:11:09.145Z,1.15
2019-04-25T00:13:36.299Z,1.20
2019-04-25T00:16:02.792Z,1.20
2019-04-25T00:18:28.938Z,1.47
2019-04-25T00:21:01.205Z,1.12
2019-04-25T00:23:27.693Z,1.22
2019-04-25T00:25:56.862Z,1.30
2019-04-25T00:28:23.024Z,1.37
2019-04-25T00:30:49.310Z,1.40
2019-04-25T00:33:15.574Z,1.52
2019-04-25T00:35:43.475Z,1.55
2019-04-25T00:38:09.820Z,1.10
2019-04-25T00:40:36.110Z,1.20
2019-04-25T00:43:02.277Z,1.40
2019-04-25T00:45:28.449Z,1.30
2019-04-25T00:47:54.620Z,1.30
2019-04-25T00:50:21.917Z,1.40
2019-04-25T00:52:48.361Z,1.35
2019-04-25T00:55:26.155Z,1.30
2019-04-25T00:57:44.788Z,1.50
2019-04-25T01:00:14.317Z,1.50
2019-04-25T01:02:43.424Z,1.52
2019-04-25T01:05:11.649Z,1.47
2019-04-25T01:07:37.972Z,1.15
2019-04-25T01:10:07.518Z,1.50
2019-04-25T01:12:33.741Z,1.45
2019-04-25T01:15:01.538Z,1.40
2019-04-25T01:17:28.397Z,1.50
2019-04-25T01:19:56.919Z,1.65
2019-04-25T01:22:23.236Z,1.80
2019-04-25T01:24:49.518Z,1.40
2019-04-25T01:27:16.188Z,1.42
2019-04-25T01:29:42.363Z,1.75
2019-04-25T01:32:10.446Z,1.50
2019-04-25T01:34:41.895Z,1.42
2019-04-25T01:37:19.189Z,1.62
2019-04-25T01:39:47.531Z,1.30
2019-04-25T01:42:33.783Z,1.30
2019-04-25T01:45:00.430Z,1.47
2019-04-25T01:47:26.752Z,1.45
2019-04-25T01:49:54.582Z,1.62
2019-04-25T01:52:21.050Z,1.70
2019-04-25T01:54:47.243Z,1.45
2019-04-25T01:57:23.992Z,1.60
2019-04-25T01:59:51.353Z,1.77
2019-04-25T02:02:19.673Z,1.40
2019-04-25T02:04:45.953Z,1.40
2019-04-25T02:07:13.508Z,1.72
2019-04-25T02:09:39.997Z,1.67
2019-04-25T02:12:10.605Z,1.62
2019-04-25T02:14:36.980Z,1.52
2019-04-25T02:17:04.561Z,1.62
2019-04-25T02:19:30.944Z,1.50
2019-04-25T02:21:57.814Z,1.75
2019-04-25T02:24:24.095Z,1.40
2019-04-25T02:26:50.302Z,1.62
2019-04-25T02:29:16.690Z,1.77
2019-04-25T02:31:45.040Z,2.27
2019-04-25T02:34:10.930Z,1.35
2019-04-25T02:36:37.232Z,1.87
2019-04-25T02:39:27.209Z,1.50
2019-04-25T02:41:56.003Z,1.70
2019-04-25T02:44:21.450Z,1.42
2019-04-25T02:46:54.526Z,1.80
2019-04-25T02:49:39.673Z,1.90
2019-04-25T02:52:12.908Z,1.77
2019-04-25T02:54:36.175Z,1.77
2019-04-25T02:57:05.170Z,1.57
2019-04-25T02:59:30.426Z,1.60
2019-04-25T03:01:57.591Z,1.80
2019-04-25T03:04:24.901Z,1.87
2019-04-25T03:06:51.108Z,2.10
2019-04-25T03:09:17.291Z,2.20
2019-04-25T03:11:45.149Z,1.98
2019-04-25T03:14:11.548Z,2.05
2019-04-25T03:16:37.826Z,1.85
2019-04-25T03:19:25.927Z,1.92
2019-04-25T03:21:59.766Z,1.60
2019-04-25T03:24:28.554Z,2.00
2019-04-25T03:26:55.340Z,1.98
2019-04-25T03:29:24.669Z,1.82
2019-04-25T03:31:50.852Z,1.95
2019-04-25T03:34:20.628Z,1.82
2019-04-25T03:36:45.136Z,2.10
2019-04-25T03:39:11.605Z,2.00
2019-04-25T03:41:37.781Z,1.80
2019-04-25T03:44:05.189Z,2.12
2019-04-25T03:46:33.355Z,2.85
2019-04-25T03:48:59.688Z,1.95
2019-04-25T03:51:25.849Z,2.30
2019-04-25T03:53:53.484Z,2.37
2019-04-25T03:56:19.889Z,2.10
2019-04-25T03:58:46.071Z,2.40
2019-04-25T04:01:14.982Z,2.20
2019-04-25T04:03:40.668Z,2.08
2019-04-25T04:06:08.292Z,1.87
2019-04-25T04:08:35.778Z,2.58
2019-04-25T04:11:02.011Z,2.58
2019-04-25T04:13:28.210Z,2.22
2019-04-25T04:15:54.385Z,2.10
2019-04-25T04:18:26.910Z,2.20
2019-04-25T04:20:58.213Z,2.47
2019-04-25T04:23:33.245Z,2.50
2019-04-25T04:25:59.769Z,2.85
2019-04-25T04:28:25.936Z,2.83
2019-04-25T04:30:53.958Z,2.50
2019-04-25T04:33:29.612Z,2.33
2019-04-25T04:35:48.645Z,1.87
2019-04-25T04:38:15.515Z,2.12
2019-04-25T04:40:44.271Z,2.35
2019-04-25T04:43:11.735Z,2.25
2019-04-25T04:45:38.029Z,2.30
2019-04-25T04:48:04.253Z,2.65
2019-04-25T04:50:33.681Z,2.75
2019-04-25T04:52:59.941Z,2.33
2019-04-25T04:55:26.135Z,2.37
2019-04-25T04:57:52.340Z,2.20
2019-04-25T05:00:18.889Z,2.20
2019-04-25T05:03:02.126Z,2.70
2019-04-25T05:05:36.796Z,2.72
2019-04-25T05:08:21.787Z,2.15
2019-04-25T05:10:47.976Z,2.77
2019-04-25T05:13:15.740Z,2.35
2019-04-25T05:15:43.018Z,2.37
2019-04-25T05:18:11.542Z,2.20
2019-04-25T05:20:38.587Z,2.22
2019-04-25T05:23:04.802Z,2.17
2019-04-25T05:25:30.964Z,2.30
2019-04-25T05:28:02.457Z,1.95
2019-04-25T05:30:27.272Z,2.10
2019-04-25T05:32:54.364Z,2.02
2019-04-25T05:35:20.697Z,2.15
2019-04-25T05:37:46.936Z,1.85
2019-04-25T05:40:15.113Z,1.65
2019-04-25T05:42:49.711Z,1.42
2019-04-25T05:45:18.914Z,1.87
2019-04-25T05:47:45.860Z,1.70
2019-04-25T05:50:13.872Z,1.40
2019-04-25T05:52:41.353Z,1.40
2019-04-25T05:55:07.825Z,1.77
2019-04-25T05:57:45.249Z,1.50
2019-04-25T06:00:05.512Z,1.57
2019-04-25T06:02:34.018Z,1.22
2019-04-25T06:05:00.374Z,1.62
2019-04-25T06:07:27.914Z,1.27
2019-04-25T06:09:56.082Z,1.30
2019-04-25T06:12:24.757Z,1.20
2019-04-25T06:14:52.959Z,1.32
2019-04-25T06:17:30.682Z,1.10
2019-04-25T06:19:58.382Z,1.10
2019-04-25T06:22:29.385Z,0.90
2019-04-25T06:24:59.988Z,1.10
2019-04-25T06:27:28.498Z,1.10
2019-04-25T06:29:58.968Z,1.05
2019-04-25T06:32:25.812Z,0.85
2019-04-25T06:34:54.252Z,1.32
2019-04-25T06:37:21.331Z,1.12
2019-04-25T06:39:47.675Z,1.30
2019-04-25T06:42:13.934Z,1.10
2019-04-25T06:44:56.872Z,1.12
2019-04-25T06:47:40.112Z,1.10
2019-04-25T06:50:06.613Z,0.90
2019-04-25T06:52:35.270Z,1.17
2019-04-25T06:55:00.871Z,1.00
2019-04-25T06:57:28.997Z,1.20
2019-04-25T06:59:55.139Z,1.05
2019-04-25T07:02:22.740Z,0.80
2019-04-25T07:04:51.554Z,1.10
2019-04-25T07:07:17.789Z,0.72
2019-04-25T07:09:43.994Z,0.65
2019-04-25T07:12:10.227Z,0.80
2019-04-25T07:14:36.855Z,0.95
2019-04-25T07:17:04.326Z,0.65
2019-04-25T07:19:30.710Z,1.20
2019-04-25T07:21:57.385Z,1.15
2019-04-25T07:24:24.842Z,0.95
2019-04-25T07:26:53.880Z,0.95
2019-04-25T07:29:23.536Z,1.00
2019-04-25T07:31:57.844Z,1.02
2019-04-25T07:34:26.506Z,1.00
2019-04-25T07:36:53.631Z,1.05
2019-04-25T07:39:19.858Z,1.20
2019-04-25T07:41:46.031Z,1.00
2019-04-25T07:44:12.228Z,1.00
2019-04-25T07:46:40.019Z,0.90
2019-04-25T07:49:07.630Z,1.17
2019-04-25T07:51:34.583Z,1.17
2019-04-25T07:54:02.333Z,1.10
2019-04-25T07:56:29.410Z,1.00
2019-04-25T07:59:15.555Z,0.88
2019-04-25T08:01:43.484Z,1.42
2019-04-25T08:04:09.984Z,1.15
2019-04-25T08:06:36.149Z,1.10
2019-04-25T08:09:08.456Z,1.40
2019-04-25T08:11:36.232Z,1.50
2019-04-25T08:14:08.370Z,1.40
2019-04-25T08:16:37.214Z,1.30
2019-04-25T08:19:04.081Z,1.25
2019-04-25T08:21:32.112Z,1.47
2019-04-25T08:24:00.244Z,1.10
2019-04-25T08:26:26.429Z,1.32
2019-04-25T08:28:57.512Z,1.35
2019-04-25T08:31:20.969Z,1.17
2019-04-25T08:33:47.182Z,1.32
2019-04-25T08:36:13.734Z,1.20
2019-04-25T08:38:40.337Z,1.30
2019-04-25T08:41:06.558Z,1.40
2019-04-25T08:43:36.330Z,1.17
2019-04-25T08:46:04.108Z,1.62
2019-04-25T08:48:34.331Z,1.30
2019-04-25T08:51:05.135Z,1.42
2019-04-25T08:53:45.192Z,1.40
2019-04-25T08:56:15.801Z,1.27
2019-04-25T08:58:46.660Z,1.52
2019-04-25T09:01:32.434Z,1.27
2019-04-25T09:04:03.613Z,1.67
2019-04-25T09:06:29.645Z,1.52
2019-04-25T09:08:55.866Z,1.40
2019-04-25T09:11:22.112Z,1.40
2019-04-25T09:13:48.273Z,1.42
2019-04-25T09:16:15.520Z,1.40
2019-04-25T09:18:41.865Z,1.30
2019-04-25T09:21:08.058Z,1.60
2019-04-25T09:23:36.461Z,1.30
2019-04-25T09:26:03.965Z,1.20
2019-04-25T09:28:31.281Z,1.30
2019-04-25T09:30:57.454Z,1.57
2019-04-25T09:33:23.673Z,1.40
2019-04-25T09:35:49.853Z,1.45
2019-04-25T09:38:16.115Z,1.40
2019-04-25T09:40:44.147Z,1.22
2019-04-25T09:43:10.526Z,1.50
2019-04-25T09:45:45.192Z,1.20
2019-04-25T09:48:30.954Z,1.20
2019-04-25T09:51:05.628Z,1.52
2019-04-25T09:53:33.966Z,1.60
2019-04-25T09:56:05.176Z,1.32
2019-04-25T09:58:44.059Z,1.55
2019-04-25T10:01:16.029Z,1.30
2019-04-25T10:03:43.524Z,1.45
2019-04-25T10:06:13.938Z,1.77
2019-04-25T10:08:41.056Z,1.52
2019-04-25T10:11:08.722Z,1.50
2019-04-25T10:13:34.936Z,1.60
2019-04-25T10:16:04.025Z,1.50
2019-04-25T10:18:31.117Z,1.35
2019-04-25T10:20:58.389Z,1.40
2019-04-25T10:23:24.633Z,1.55
2019-04-25T10:25:50.900Z,1.37
2019-04-25T10:28:17.085Z,1.62
2019-04-25T10:30:45.538Z,1.57
2019-04-25T10:33:14.128Z,1.50
2019-04-25T10:35:47.912Z,1.25
2019-04-25T10:38:08.897Z,1.25
2019-04-25T10:40:35.281Z,1.00
2019-04-25T10:43:01.533Z,1.02
2019-04-25T10:45:27.723Z,0.95
2019-04-25T10:47:55.269Z,1.57
2019-04-25T10:50:23.714Z,1.25
2019-04-25T10:52:50.158Z,1.22
2019-04-25T10:55:16.497Z,1.10
2019-04-25T10:57:43.682Z,1.47
2019-04-25T11:00:20.566Z,1.30
2019-04-25T11:02:47.506Z,1.30
2019-04-25T11:05:15.786Z,1.20
2019-04-25T11:07:42.007Z,0.95
2019-04-25T11:10:08.357Z,1.35
2019-04-25T11:12:34.514Z,0.60
2019-04-25T11:15:00.967Z,1.10
2019-04-25T11:17:27.124Z,1.00
2019-04-25T11:19:54.307Z,1.40
2019-04-25T11:22:21.472Z,1.12
2019-04-25T11:24:48.567Z,1.10
2019-04-25T11:27:14.922Z,1.10
2019-04-25T11:29:41.651Z,0.90
2019-04-25T11:32:08.901Z,1.05
2019-04-25T11:34:35.057Z,1.05
2019-04-25T11:37:01.439Z,1.00
2019-04-25T11:39:29.602Z,0.90
2019-04-25T11:41:55.986Z,1.10
2019-04-25T11:44:22.139Z,1.07
2019-04-25T11:46:48.350Z,0.90
2019-04-25T11:49:15.270Z,0.90
2019-04-25T11:51:42.654Z,0.90
2019-04-25T11:54:09.472Z,0.98
2019-04-25T11:56:35.837Z,0.80
2019-04-25T11:59:02.348Z,0.80
2019-04-25T12:01:29.586Z,1.00
2019-04-25T12:03:56.916Z,0.80
2019-04-25T12:06:24.361Z,0.70
2019-04-25T12:08:51.479Z,0.60
2019-04-25T12:11:18.123Z,0.90
2019-04-25T12:13:45.999Z,0.70
2019-04-25T12:16:14.277Z,0.75
2019-04-25T12:18:40.720Z,0.70
2019-04-25T12:21:06.979Z,0.68
2019-04-25T12:23:53.560Z,0.70
2019-04-25T12:26:19.878Z,0.80
2019-04-25T12:28:47.231Z,0.60
2019-04-25T12:31:14.798Z,0.90
2019-04-25T12:33:41.300Z,0.80
2019-04-25T12:36:07.753Z,0.90
2019-04-25T12:38:35.473Z,1.02
2019-04-25T12:41:01.885Z,0.70
2019-04-25T12:43:29.952Z,0.80
2019-04-25T12:45:58.305Z,0.90
2019-04-25T12:48:24.623Z,1.00
2019-04-25T12:50:52.051Z,0.75
2019-04-25T12:53:18.464Z,0.80
2019-04-25T12:55:44.667Z,1.05
2019-04-25T12:58:10.932Z,0.93
2019-04-25T13:00:47.547Z,0.98
2019-04-25T13:03:06.944Z,0.80
2019-04-25T13:05:34.211Z,0.90
2019-04-25T13:08:01.122Z,1.10
2019-04-25T13:10:28.515Z,0.82
2019-04-25T13:12:55.454Z,0.80
2019-04-25T13:15:25.234Z,1.00
2019-04-25T13:17:50.181Z,0.78
2019-04-25T13:20:16.353Z,0.93
2019-04-25T13:22:43.721Z,0.93
2019-04-25T13:25:11.886Z,1.25
2019-04-25T13:27:39.973Z,0.98
2019-04-25T13:30:24.890Z,1.10
2019-04-25T13:33:08.597Z,0.90
2019-04-25T13:35:54.394Z,1.20
2019-04-25T13:38:20.850Z,0.90
2019-04-25T13:40:47.235Z,0.80
2019-04-25T13:43:13.462Z,1.10
2019-04-25T13:45:39.688Z,0.70
2019-04-25T13:48:05.960Z,1.05
2019-04-25T13:50:33.986Z,1.05
2019-04-25T13:53:00.565Z,0.98
2019-04-25T13:55:26.721Z,1.17
2019-04-25T13:57:53.384Z,0.95
2019-04-25T14:00:24.750Z,0.98
2019-04-25T14:02:51.942Z,1.07
2019-04-25T14:05:20.301Z,0.93
2019-04-25T14:07:47.393Z,1.00
2019-04-25T14:10:14.293Z,0.90
2019-04-25T14:12:41.205Z,1.30
2019-04-25T14:15:09.905Z,1.00
2019-04-25T14:17:55.111Z,1.07
2019-04-25T14:20:41.666Z,1.10
2019-04-25T14:23:15.488Z,0.90
2019-04-25T14:25:54.318Z,0.88
2019-04-25T14:28:26.150Z,0.95
2019-04-25T14:30:52.928Z,1.10
2019-04-25T14:33:19.113Z,1.02
2019-04-25T14:35:45.472Z,1.10
2019-04-25T14:38:11.661Z,1.10
2019-04-25T14:40:37.818Z,1.10
2019-04-25T14:43:05.090Z,1.00
2019-04-25T14:45:43.016Z,1.25
2019-04-25T14:47:59.357Z,1.10
2019-04-25T14:50:25.789Z,0.98
2019-04-25T14:52:51.997Z,1.00
2019-04-25T14:55:23.670Z,1.30
2019-04-25T14:57:50.944Z,1.40
2019-04-25T15:00:23.981Z,1.30
2019-04-25T15:02:50.204Z,1.15
2019-04-25T15:05:16.409Z,1.10
2019-04-25T15:07:42.994Z,1.30
2019-04-25T15:10:09.496Z,1.35
2019-04-25T15:12:36.798Z,1.27
2019-04-25T15:15:04.593Z,1.10
2019-04-25T15:17:43.466Z,1.47
2019-04-25T15:19:59.829Z,1.22
2019-04-25T15:22:25.989Z,1.25
2019-04-25T15:24:52.156Z,1.25
2019-04-25T15:27:18.381Z,1.20
2019-04-25T15:29:44.571Z,1.10
2019-04-25T15:32:26.184Z,1.60
2019-04-25T15:34:54.650Z,1.17
2019-04-25T15:37:22.728Z,1.10
2019-04-25T15:39:50.828Z,1.25
2019-04-25T15:42:34.104Z,1.55
2019-04-25T15:45:02.600Z,1.20
2019-04-25T15:47:30.756Z,1.20
2019-04-25T15:49:56.955Z,1.50
2019-04-25T15:52:24.237Z,1.17
2019-04-25T15:54:50.411Z,0.95
2019-04-25T15:57:16.609Z,1.27
2019-04-25T15:59:42.829Z,1.12
2019-04-25T16:02:11.088Z,1.20
2019-04-25T16:04:37.286Z,1.32
2019-04-25T16:07:04.384Z,1.35
2019-04-25T16:09:30.557Z,1.27
2019-04-25T16:11:56.824Z,1.22
2019-04-25T16:14:23.118Z,1.80
2019-04-25T16:16:49.384Z,1.40
2019-04-25T16:19:15.685Z,1.20
2019-04-25T16:21:42.203Z,1.77
2019-04-25T16:24:09.565Z,1.50
2019-04-25T16:26:35.734Z,1.00
2019-04-25T16:29:02.118Z,1.32
2019-04-25T16:31:29.164Z,1.40
2019-04-25T16:33:55.594Z,1.20
2019-04-25T16:36:21.775Z,1.00
2019-04-25T16:38:47.928Z,1.17
2019-04-25T16:41:14.205Z,1.30
2019-04-25T16:43:43.074Z,1.30
2019-04-25T16:46:09.460Z,1.50
2019-04-25T16:48:35.696Z,1.45
2019-04-25T16:51:01.996Z,1.42
2019-04-25T16:53:28.254Z,1.37
2019-04-25T16:55:55.511Z,1.20
2019-04-25T16:58:23.326Z,1.32
2019-04-25T17:00:51.629Z,1.22
2019-04-25T17:03:19.197Z,1.30
2019-04-25T17:05:45.554Z,1.17
2019-04-25T17:08:13.069Z,1.40
2019-04-25T17:10:39.503Z,2.05
2019-04-25T17:13:06.504Z,1.20
2019-04-25T17:15:38.378Z,1.25
2019-04-25T17:18:06.776Z,1.50
2019-04-25T17:20:34.946Z,1.47
2019-04-25T17:23:01.137Z,1.27
2019-04-25T17:25:27.493Z,1.45
2019-04-25T17:27:53.864Z,1.27
2019-04-25T17:30:21.169Z,1.27
2019-04-25T17:32:53.857Z,1.60
2019-04-25T17:35:33.658Z,1.32
2019-04-25T17:38:19.765Z,1.30
2019-04-25T17:40:45.963Z,1.60
2019-04-25T17:43:12.129Z,1.42
2019-04-25T17:45:39.117Z,1.52
2019-04-25T17:48:06.090Z,1.25
2019-04-25T17:50:32.932Z,1.47
2019-04-25T17:52:59.248Z,1.55
2019-04-25T17:55:25.414Z,1.32
2019-04-25T17:57:51.609Z,1.30
2019-04-25T18:00:28.689Z,1.20
2019-04-25T18:02:58.871Z,1.15
2019-04-25T18:05:23.002Z,1.47
2019-04-25T18:07:49.193Z,1.00
2019-04-25T18:10:15.477Z,1.00
2019-04-25T18:12:42.231Z,1.20
2019-04-25T18:15:11.053Z,0.98
2019-04-25T18:17:38.068Z,1.20
2019-04-25T18:20:10.796Z,1.12
2019-04-25T18:22:49.078Z,1.17
2019-04-25T18:25:29.549Z,1.45
2019-04-25T18:27:57.616Z,1.12
2019-04-25T18:30:23.907Z,1.20
2019-04-25T18:32:58.006Z,1.02
2019-04-25T18:35:29.273Z,1.10
2019-04-25T18:37:57.336Z,1.00
2019-04-25T18:40:25.447Z,1.35
2019-04-25T18:42:53.621Z,0.93
2019-04-25T18:45:35.865Z,1.17
2019-04-25T18:48:03.173Z,1.30
2019-04-25T18:50:31.237Z,1.32
2019-04-25T18:52:59.334Z,1.52
2019-04-25T18:55:27.399Z,1.30
2019-04-25T18:57:55.506Z,1.35
2019-04-25T19:00:39.189Z,1.30
2019-04-25T19:06:00.096Z,1.32
2019-04-25T19:08:26.281Z,1.20
2019-04-25T19:10:52.709Z,1.25
2019-04-25T19:13:19.037Z,1.12
2019-04-25T19:15:45.529Z,1.20
2019-04-25T19:18:11.741Z,1.27
2019-04-25T19:20:38.975Z,1.20
2019-04-25T19:23:07.308Z,1.17
2019-04-25T19:25:33.594Z,1.20
2019-04-25T19:27:59.865Z,1.02
2019-04-25T19:30:26.125Z,1.00
2019-04-25T19:32:52.302Z,0.80
2019-04-25T19:35:18.481Z,1.00
2019-04-25T19:37:44.800Z,0.90
2019-04-25T19:40:15.898Z,1.05
2019-04-25T19:42:44.530Z,1.07
2019-04-25T19:45:11.264Z,1.20
2019-04-25T19:47:37.444Z,0.72
2019-04-25T19:50:04.496Z,0.90
2019-04-25T19:52:31.061Z,0.93
2019-04-25T19:54:57.470Z,1.20
2019-04-25T19:57:23.653Z,1.25
2019-04-25T19:59:50.660Z,1.40
2019-04-25T20:02:18.969Z,0.93
2019-04-25T20:04:56.148Z,0.90
2019-04-25T20:07:27.194Z,0.85
2019-04-25T20:10:12.185Z,0.90
2019-04-25T20:12:44.004Z,0.90
2019-04-25T20:15:11.364Z,0.80
2019-04-25T20:17:37.543Z,1.12
2019-04-25T20:20:06.037Z,1.00
2019-04-25T20:22:32.228Z,0.90
2019-04-25T20:24:58.397Z,1.25
2019-04-25T20:27:24.614Z,1.07
2019-04-25T20:29:50.818Z,1.10
2019-04-25T20:32:16.994Z,0.88
2019-04-25T20:34:43.149Z,0.80
2019-04-25T20:37:09.371Z,1.00
2019-04-25T20:39:35.633Z,1.12
2019-04-25T20:42:01.796Z,0.93
2019-04-25T20:44:29.096Z,0.80
2019-04-25T20:46:55.265Z,1.00
2019-04-25T20:49:21.426Z,0.90
2019-04-25T20:51:48.460Z,1.00
2019-04-25T20:54:14.710Z,1.07
2019-04-25T20:56:40.887Z,1.15
2019-04-25T20:59:07.095Z,0.98
2019-04-25T21:01:33.297Z,1.15
2019-04-25T21:03:59.518Z,1.02
2019-04-25T21:06:33.677Z,1.10
2019-04-25T21:08:59.866Z,1.10
2019-04-25T21:11:26.033Z,1.30
2019-04-25T21:14:02.714Z,1.07
2019-04-25T21:16:46.850Z,1.00
2019-04-25T21:19:30.064Z,1.10
2019-04-25T21:21:56.572Z,0.82
2019-04-25T21:24:22.866Z,0.90
2019-04-25T21:26:49.050Z,0.90
2019-04-25T21:29:15.349Z,1.10
2019-04-25T21:31:41.659Z,0.68
2019-04-25T21:34:07.875Z,0.85
2019-04-25T21:36:36.241Z,1.20
2019-04-25T21:39:06.837Z,0.90
2019-04-25T21:41:40.382Z,0.90
2019-04-25T21:44:07.186Z,0.90
2019-04-25T21:46:33.549Z,0.80
2019-04-25T21:49:01.026Z,1.10
2019-04-25T21:51:30.154Z,0.90
2019-04-25T21:53:57.292Z,1.00
2019-04-25T21:56:23.922Z,0.90
2019-04-25T21:58:50.120Z,0.90
2019-04-25T22:01:20.902Z,0.80
2019-04-25T22:03:47.269Z,0.90
2019-04-25T22:06:13.968Z,0.85
2019-04-25T22:08:41.768Z,1.32
2019-04-25T22:11:08.048Z,1.07
2019-04-25T22:13:34.828Z,1.02
2019-04-25T22:16:01.669Z,0.98
2019-04-25T22:18:28.276Z,1.02
2019-04-25T22:20:55.801Z,1.10
2019-04-25T22:23:23.165Z,1.20
2019-04-25T22:25:49.736Z,0.90
2019-04-25T22:28:16.289Z,0.90
2019-04-25T22:30:44.695Z,1.00
2019-04-25T22:33:22.165Z,0.80
2019-04-25T22:35:53.289Z,1.00
2019-04-25T22:38:19.860Z,0.93
2019-04-25T22:40:46.036Z,1.10
2019-04-25T22:43:12.640Z,1.30
2019-04-25T22:45:39.129Z,1.02
2019-04-25T22:48:06.664Z,1.00
2019-04-25T22:50:33.849Z,1.00
2019-04-25T22:53:01.215Z,1.15
2019-04-25T22:55:28.113Z,0.90
2019-04-25T22:57:54.336Z,1.02
2019-04-25T23:00:28.212Z,0.82
2019-04-25T23:02:58.243Z,1.00
2019-04-25T23:05:28.810Z,0.93
2019-04-25T23:07:55.268Z,0.88
2019-04-25T23:10:21.856Z,0.90
2019-04-25T23:12:48.015Z,1.12
2019-04-25T23:15:14.580Z,1.00
2019-04-25T23:17:40.763Z,1.00
2019-04-25T23:20:09.566Z,0.95
2019-04-25T23:22:35.876Z,1.00
2019-04-25T23:25:09.887Z,1.12
2019-04-25T23:27:54.627Z,0.88
2019-04-25T23:30:22.912Z,1.00
2019-04-25T23:32:49.068Z,1.12
2019-04-25T23:35:28.077Z,0.90
2019-04-25T23:37:44.456Z,0.80
2019-04-25T23:40:11.623Z,1.07
2019-04-25T23:42:37.902Z,0.90
2019-04-25T23:45:06.658Z,1.30
2019-04-25T23:47:33.960Z,1.02
2019-04-25T23:50:00.561Z,0.80
2019-04-25T23:52:26.790Z,0.80
2019-04-25T23:54:53.048Z,1.20
2019-04-25T23:57:19.748Z,1.00
2019-04-25T23:59:45.908Z,1.10
